createdAt,value
2019-06-08T00:01:12.164Z,13.60
2019-06-08T00:06:18.824Z,14.67
2019-06-08T00:11:23.907Z,16.67
2019-06-08T00:16:28.854Z,12.07
2019-06-08T00:21:33.874Z,12.77
2019-06-08T00:26:38.926Z,15.43
2019-06-08T00:31:44.034Z,11.77
2019-06-08T00:36:48.910Z,11.63
2019-06-08T00:41:53.933Z,15.03
2019-06-08T00:46:58.887Z,13.13
2019-06-08T00:52:04.104Z,12.80
2019-06-08T00:57:09.193Z,11.37
2019-06-08T01:02:14.211Z,13.40
2019-06-08T01:07:19.932Z,13.97
2019-06-08T01:12:24.936Z,15.00
2019-06-08T01:17:29.971Z,11.77
2019-06-08T01:22:34.926Z,10.27
2019-06-08T01:27:39.909Z,13.00
2019-06-08T01:32:45.036Z,11.93
2019-06-08T01:37:50.082Z,11.93
2019-06-08T01:42:55.098Z,13.43
2019-06-08T01:48:15.991Z,10.97
2019-06-08T01:53:09.060Z,12.10
2019-06-08T01:58:14.106Z,11.07
2019-06-08T02:03:19.258Z,11.23
2019-06-08T02:08:24.447Z,9.30
2019-06-08T02:13:29.450Z,11.80
2019-06-08T02:18:44.110Z,11.27
2019-06-08T02:23:41.024Z,9.87
2019-06-08T02:28:46.107Z,12.43
2019-06-08T02:33:51.213Z,10.70
2019-06-08T02:38:56.320Z,10.63
2019-06-08T02:44:01.272Z,13.80
2019-06-08T02:49:06.606Z,13.00
2019-06-08T02:54:12.147Z,15.20
2019-06-08T02:59:20.311Z,15.43
2019-06-08T03:04:27.302Z,13.30
2019-06-08T03:09:34.737Z,11.37
2019-06-08T03:14:42.117Z,10.17
2019-06-08T03:19:47.268Z,17.20
2019-06-08T03:24:52.243Z,14.37
2019-06-08T03:29:57.231Z,14.40
2019-06-08T03:35:02.211Z,17.47
2019-06-08T03:40:07.330Z,16.83
2019-06-08T03:45:13.319Z,16.97
2019-06-08T03:50:18.281Z,15.50
2019-06-08T03:55:23.401Z,20.10
2019-06-08T04:00:28.511Z,21.07
2019-06-08T04:05:33.601Z,24.43
2019-06-08T04:10:39.925Z,25.83
2019-06-08T04:15:46.974Z,27.47
2019-06-08T04:20:52.123Z,31.03
2019-06-08T04:25:57.146Z,33.17
2019-06-08T04:31:02.203Z,31.53
2019-06-08T04:36:07.265Z,38.03
2019-06-08T04:41:12.271Z,41.03
2019-06-08T04:46:17.271Z,39.03
2019-06-08T04:51:22.251Z,38.77
2019-06-08T04:56:27.274Z,42.10
2019-06-08T05:01:32.245Z,42.20
2019-06-08T05:06:38.892Z,42.10
2019-06-08T05:11:45.237Z,44.40
2019-06-08T05:16:50.430Z,46.80
2019-06-08T05:21:55.382Z,46.63
2019-06-08T05:27:00.430Z,47.53
2019-06-08T05:32:05.566Z,50.67
2019-06-08T05:37:10.521Z,38.53
2019-06-08T05:42:15.505Z,35.73
2019-06-08T05:47:20.590Z,30.17
2019-06-08T05:52:25.569Z,28.10
2019-06-08T05:57:30.489Z,29.33
2019-06-08T06:02:35.578Z,29.23
2019-06-08T06:07:40.615Z,27.50
2019-06-08T06:12:46.863Z,31.00
2019-06-08T06:17:52.035Z,25.97
2019-06-08T06:22:58.574Z,28.97
2019-06-08T06:28:06.217Z,26.10
2019-06-08T06:33:10.621Z,23.60
2019-06-08T06:38:15.654Z,26.23
2019-06-08T06:43:20.842Z,26.07
2019-06-08T06:48:25.878Z,25.47
2019-06-08T06:53:30.770Z,27.03
2019-06-08T06:58:35.718Z,28.23
2019-06-08T07:03:40.762Z,28.20
2019-06-08T07:08:46.216Z,30.17
2019-06-08T07:13:51.190Z,31.50
2019-06-08T07:18:56.159Z,32.63
2019-06-08T07:24:01.126Z,29.77
2019-06-08T07:29:06.152Z,29.63
2019-06-08T07:34:11.135Z,28.23
2019-06-08T07:39:16.154Z,26.83
2019-06-08T07:44:21.153Z,25.93
2019-06-08T07:49:26.123Z,28.87
2019-06-08T07:54:31.039Z,25.87
2019-06-08T07:59:36.015Z,27.63
2019-06-08T08:04:41.038Z,25.60
2019-06-08T08:09:46.157Z,27.50
2019-06-08T08:14:51.349Z,23.40
2019-06-08T08:19:57.307Z,24.93
2019-06-08T08:25:05.003Z,25.13
2019-06-08T08:30:11.050Z,23.87
2019-06-08T08:35:18.423Z,27.00
2019-06-08T08:40:23.723Z,27.13
2019-06-08T08:45:29.134Z,24.67
2019-06-08T08:50:34.158Z,25.17
2019-06-08T08:55:39.250Z,24.43
2019-06-08T09:00:44.196Z,23.07
2019-06-08T09:05:49.215Z,21.77
2019-06-08T09:10:55.380Z,21.23
2019-06-08T09:16:03.993Z,20.33
2019-06-08T09:21:08.384Z,19.10
2019-06-08T09:26:13.703Z,16.57
2019-06-08T09:31:18.876Z,13.67
2019-06-08T09:36:23.983Z,12.57
2019-06-08T09:41:31.236Z,7.83
2019-06-08T09:46:38.362Z,7.40
2019-06-08T09:51:42.269Z,4.90
2019-06-08T09:56:47.854Z,4.53
2019-06-08T10:01:54.021Z,2.93
2019-06-08T10:07:00.685Z,3.63
2019-06-08T10:12:09.690Z,2.67
2019-06-08T10:17:13.971Z,3.10
2019-06-08T10:22:18.996Z,2.37
2019-06-08T10:27:24.014Z,2.00
2019-06-08T10:32:28.973Z,1.83
2019-06-08T10:37:33.991Z,2.10
2019-06-08T10:42:40.147Z,2.00
2019-06-08T10:47:47.748Z,1.77
2019-06-08T10:52:52.094Z,1.10
2019-06-08T10:57:58.003Z,1.07
2019-06-08T11:03:05.304Z,1.47
2019-06-08T11:08:14.107Z,1.20
2019-06-08T11:13:18.688Z,1.07
2019-06-08T11:18:23.203Z,1.65
2019-06-08T11:23:28.808Z,0.95
2019-06-08T11:28:33.938Z,1.13
2019-06-08T11:33:39.135Z,1.15
2019-06-08T11:38:47.667Z,0.82
2019-06-08T11:43:51.731Z,1.10
2019-06-08T11:48:57.792Z,1.60
2019-06-08T11:54:05.042Z,1.77
2019-06-08T11:59:14.312Z,1.30
2019-06-08T12:04:18.581Z,0.98
2019-06-08T12:09:24.593Z,0.60
2019-06-08T12:14:29.673Z,1.20
2019-06-08T12:19:37.541Z,1.05
2019-06-08T12:24:42.541Z,1.00
2019-06-08T12:29:52.382Z,1.10
2019-06-08T12:34:59.824Z,0.72
2019-06-08T12:40:07.596Z,0.98
2019-06-08T12:45:13.373Z,0.60
2019-06-08T12:50:19.972Z,0.78
2019-06-08T12:55:25.572Z,0.70
2019-06-08T13:00:30.834Z,1.17
2019-06-08T13:05:37.922Z,0.98
2019-06-08T13:10:44.175Z,0.85
2019-06-08T13:15:49.408Z,1.27
2019-06-08T13:20:54.452Z,1.10
2019-06-08T13:25:59.429Z,1.20
2019-06-08T13:31:04.454Z,1.30
2019-06-08T13:36:10.346Z,0.80
2019-06-08T13:41:15.402Z,1.40
2019-06-08T13:46:22.363Z,1.30
2019-06-08T13:51:28.189Z,0.87
2019-06-08T13:56:33.346Z,1.17
2019-06-08T14:01:38.431Z,1.37
2019-06-08T14:06:43.457Z,0.70
2019-06-08T14:11:48.351Z,1.30
2019-06-08T14:16:54.242Z,1.40
2019-06-08T14:21:59.190Z,1.25
2019-06-08T14:27:04.241Z,1.00
2019-06-08T14:32:11.593Z,1.40
2019-06-08T14:37:17.894Z,2.30
2019-06-08T14:42:29.705Z,0.80
2019-06-08T14:47:31.761Z,1.05
2019-06-08T14:52:38.123Z,1.20
2019-06-08T14:57:43.471Z,0.70
2019-06-08T15:02:49.876Z,0.72
2019-06-08T15:07:55.041Z,1.20
2019-06-08T15:13:00.062Z,0.60
2019-06-08T15:18:05.173Z,0.40
2019-06-08T15:23:11.950Z,0.85
2019-06-08T15:28:18.957Z,0.50
2019-06-08T15:33:24.892Z,0.60
2019-06-08T15:38:32.365Z,1.12
2019-06-08T15:43:39.979Z,0.88
2019-06-08T15:48:43.649Z,0.55
2019-06-08T15:53:49.626Z,0.60
2019-06-08T15:58:54.497Z,0.60
2019-06-08T16:03:59.455Z,0.95
2019-06-08T16:09:07.206Z,1.12
2019-06-08T16:14:12.318Z,0.85
2019-06-08T16:19:17.330Z,1.57
2019-06-08T16:24:22.379Z,0.80
2019-06-08T16:29:27.318Z,0.75
2019-06-08T16:34:33.516Z,1.22
2019-06-08T16:39:39.008Z,1.02
2019-06-08T16:44:44.223Z,0.90
2019-06-08T16:49:49.424Z,1.07
2019-06-08T16:54:54.523Z,0.72
2019-06-08T16:59:59.535Z,1.02
2019-06-08T17:05:07.788Z,1.65
2019-06-08T17:10:13.719Z,1.42
2019-06-08T17:15:19.008Z,2.35
2019-06-08T17:20:24.339Z,2.15
2019-06-08T17:25:30.361Z,1.72
2019-06-08T17:30:36.401Z,1.22
2019-06-08T17:35:42.555Z,0.88
2019-06-08T17:40:47.567Z,1.47
2019-06-08T17:45:52.528Z,1.20
2019-06-08T17:50:58.716Z,0.98
2019-06-08T17:56:03.829Z,0.98
2019-06-08T18:01:08.951Z,1.17
2019-06-08T18:06:14.030Z,1.05
2019-06-08T18:11:19.001Z,1.47
2019-06-08T18:16:24.131Z,1.67
2019-06-08T18:21:29.138Z,1.42
2019-06-08T18:26:34.397Z,1.50
2019-06-08T18:31:42.489Z,1.40
2019-06-08T18:36:47.962Z,1.90
2019-06-08T18:41:53.062Z,1.70
2019-06-08T18:46:58.206Z,1.95
2019-06-08T18:52:03.250Z,3.12
2019-06-08T18:57:08.932Z,2.50
2019-06-08T19:02:14.874Z,2.95
2019-06-08T19:07:19.962Z,2.98
2019-06-08T19:12:24.978Z,2.55
2019-06-08T19:17:30.566Z,2.05
2019-06-08T19:22:35.222Z,2.35
2019-06-08T19:27:45.113Z,1.92
2019-06-08T19:32:50.539Z,2.33
2019-06-08T19:37:54.058Z,2.00
2019-06-08T19:43:01.381Z,2.93
2019-06-08T19:48:08.284Z,2.90
2019-06-08T19:53:13.357Z,2.57
2019-06-08T19:58:18.363Z,2.63
2019-06-08T20:03:23.403Z,2.40
2019-06-08T20:08:29.164Z,2.00
2019-06-08T20:13:34.753Z,2.20
2019-06-08T20:18:41.522Z,3.57
2019-06-08T20:23:48.233Z,2.30
2019-06-08T20:29:11.249Z,2.20
2019-06-08T20:33:59.758Z,2.03
2019-06-08T20:39:07.343Z,2.53
2019-06-08T20:44:13.674Z,4.20
2019-06-08T20:49:18.665Z,4.20
2019-06-08T20:54:23.692Z,5.50
2019-06-08T20:59:33.194Z,4.17
2019-06-08T21:04:35.357Z,4.53
2019-06-08T21:09:40.260Z,4.90
2019-06-08T21:14:46.450Z,5.40
2019-06-08T21:19:53.038Z,5.20
2019-06-08T21:25:00.235Z,6.17
2019-06-08T21:30:20.230Z,3.40
2019-06-08T21:35:18.201Z,4.13
2019-06-08T21:40:24.503Z,3.47
2019-06-08T21:45:29.555Z,3.37
2019-06-08T21:50:36.955Z,3.67
2019-06-08T21:55:41.174Z,3.00
2019-06-08T22:00:49.512Z,3.10
2019-06-08T22:05:56.502Z,3.20
2019-06-08T22:11:02.663Z,2.90
2019-06-08T22:16:08.369Z,3.40
2019-06-08T22:21:13.470Z,3.40
2019-06-08T22:26:18.442Z,6.23
2019-06-08T22:31:23.391Z,5.13
2019-06-08T22:36:28.403Z,4.70
2019-06-08T22:41:33.386Z,3.50
2019-06-08T22:46:38.322Z,3.90
2019-06-08T22:51:43.265Z,3.80
2019-06-08T22:56:48.202Z,4.23
2019-06-08T23:01:53.343Z,3.83
2019-06-08T23:07:02.868Z,4.20
2019-06-08T23:12:09.174Z,4.47
2019-06-08T23:17:12.726Z,4.53
2019-06-08T23:22:17.751Z,4.47
2019-06-08T23:27:22.710Z,6.03
2019-06-08T23:32:27.799Z,5.60
2019-06-08T23:37:32.810Z,4.50
2019-06-08T23:42:38.564Z,5.10
2019-06-08T23:47:43.702Z,6.03
2019-06-08T23:52:49.641Z,5.67
2019-06-08T23:57:54.522Z,5.43
